This is the latest recevied weather packets stored in our database for station/object OE5XFR. If no packets are shown the sender has not sent any weather packets the latest 10 day(s).
| Time | Temp. | Humidity | Pressure | Rain* | Wind** | Luminosity | Snow |
|---|---|---|---|---|---|---|---|
| 1777843995 | 15° C | 50% | 1013 hPa | 0 mm | - | - | - |
| 1777843275 | 15.56° C | 46% | 1013 hPa | 0 mm | - | - | - |
| 1777842555 | 16.11° C | 43% | 1013 hPa | 0 mm | - | - | - |
| 1777841835 | 16.11° C | 45% | 1013 hPa | 0 mm | - | - | - |
| 1777841115 | 17.22° C | 44% | 1013 hPa | 0 mm | - | - | - |
| 1777840395 | 17.22° C | 38% | 1013 hPa | 0 mm | - | - | - |
| 1777839675 | 17.22° C | 40% | 1013 hPa | 0 mm | - | - | - |
| 1777838955 | 17.78° C | 39% | 1013 hPa | 0 mm | - | - | - |
| 1777838235 | 18.33° C | 37% | 1013 hPa | 0 mm | - | - | - |
| 1777837515 | 18.89° C | 37% | 1013 hPa | 0 mm | - | - | - |
| 1777836795 | 19.44° C | 35% | 1013 hPa | 0 mm | - | - | - |
| 1777836075 | 20° C | 28% | 1013 hPa | 0 mm | - | - | - |
| 1777835355 | 20.56° C | 26% | 1014 hPa | 0 mm | - | - | - |
| 1777834635 | 21.11° C | 27% | 1013 hPa | 0 mm | - | - | - |
| 1777833915 | 21.11° C | 27% | 1013 hPa | 0 mm | - | - | - |
| 1777833194 | 22.78° C | 20% | 1013 hPa | 0 mm | - | - | - |
| 1777832475 | 22.78° C | 20% | 1013 hPa | 0 mm | - | - | - |
| 1777831755 | 23.33° C | 19% | 1013 hPa | 0 mm | - | - | - |
| 1777831034 | 23.33° C | 19% | 1013 hPa | 0 mm | - | - | - |
| 1777830314 | 23.33° C | 19% | 1013 hPa | 0 mm | - | - | - |
| 1777829595 | 23.33° C | 18% | 1013 hPa | 0 mm | - | - | - |
| 1777828874 | 23.89° C | 18% | 1013 hPa | 0 mm | - | - | - |
| 1777828154 | 23.89° C | 18% | 1013 hPa | 0 mm | - | - | - |
| 1777827434 | 24.44° C | 17% | 1013 hPa | 0 mm | - | - | - |
| 1777826715 | 24.44° C | 16% | 1013 hPa | 0 mm | - | - | - |
* Rain latest hour (hover to see other rain measurements)
** Current wind speed in m/s (hover to see current wind gust speed)